Tiempo atmosférico en la estación meteorológica de Cabrales, Asturias (458 m.)



Fecha
DESCASC
Temp. máxima en grados centígrados (hora)
DESCASC
Temp. mínima en grados centígrados (hora)
DESCASC
Temp. media en grados centígrados
DESCASC
Racha de viento máxima en m/sg (hora)
DESCASC
Velocidad máxima media en intervalos de 10 minutos(hora)
DESCASC
Precipitaciones diarias en mm
DESCASC
Precipitaciones de 00:00 a 06:00 en mm
DESCASC
Precipitaciones de 06:00 a 12:00 en mm
DESCASC
Precipitaciones de 12:00 a 18:00 en mm
DESCASC
Precipitaciones de 18:00 a 24:00 en mm
DESCASC
18-10-2018 19.6 (14:50) 12.2 (01:50) 15.9 6.67 (16:20) 5 (16:20) 1 0 0.6 0 0.4
17-10-2018 19.5 (15:10) 9.8 (07:50) 14.7 3.61 (22:50) 2.78 (22:40) 0.4 0 0 0 0.4
16-10-2018 20.8 (15:00) 9.9 (08:20) 15.3 6.67 (19:00) 3.89 (19:00) 0 0 0 0 0
15-10-2018 19.5 (16:40) 7.1 (05:30) 13.3 7.5 (07:40) 5 (07:30) 0 0 0 0 0
14-10-2018 17.6 (00:00) 8.9 (00:00) 13.3 15.56 (09:10) 10.83 (08:40) 12.8 4.6 6.2 0.6 1.4
13-10-2018 30.6 (14:40) 17.6 (00:00) 24.1 15.28 (11:10) 7.22 (23:59) 0 0 0 0 0
12-10-2018 27.4 (16:50) 14.5 (00:00) 20.9 22.22 (00:20) 13.33 (00:20) 0 0 0 0 0
11-10-2018 21.8 (12:20) 12.1 (22:40) 16.9 18.89 (01:20) 9.44 (13:10) 3.2 0 0.4 2.8 0
10-10-2018 23.5 (17:30) 11.7 (00:00) 17.6 21.11 (23:30) 9.17 (23:30) 0 0 0 0 0
09-10-2018 20.7 (15:10) 8.3 (08:40) 14.5 8.06 (00:30) 5.28 (00:30) 0 0 0 0 0
08-10-2018 18.5 (13:50) 9.1 (01:00) 13.8 10.28 (17:20) 6.67 (16:40) 0 0 0 0 0
07-10-2018 12 (16:40) 7.7 (06:00) 9.8 11.39 (01:50) 7.22 (01:50) 2.4 0.8 1.2 0.4 0
06-10-2018 18.3 (12:30) 9 (23:50) 13.6 19.72 (16:10) 13.89 (16:10) 4.4 0 0 2.2 2.2
05-10-2018 26.3 (16:40) 13.5 (09:10) 19.9 6.67 (18:10) 5 (18:50) 0 0 0 0 0
04-10-2018 27.2 (15:30) 10.6 (00:00) 18.9 5.28 (00:40) 4.17 (00:40) 0 0 0 0 0
03-10-2018 23.4 (14:50) 8.5 (00:00) 15.9 12.5 (17:50) 7.22 (16:50) 0 0 0 0 0
02-10-2018 19.3 (15:00) 7.4 (00:00) 13.3 10 (17:30) 6.11 (17:40) 0 0 0 0 0
01-10-2018 18.8 (14:40) 10.6 (00:00) 14.7 9.17 (17:50) 6.94 (17:50) 0 0 0 0 0
30-09-2018 19.3 (15:30) 13.6 (00:00) 16.4 6.94 (20:40) 5 (18:20) 0.2 0.2 0 0 0
29-09-2018 24.1 (16:00) 14.7 (00:00) 19.4 10.83 (14:00) 6.39 (14:30) 0 0 0 0 0
28-09-2018 23.9 (15:50) 14.4 (00:00) 19.1 7.5 (17:50) 4.72 (17:20) 0 0 0 0 0
27-09-2018 29.4 (17:10) 17.1 (00:00) 23.3 7.78 (13:30) 6.11 (13:40) 0 0 0 0 0
26-09-2018 27.8 (18:00) 8.5 (00:00) 18.1 3.61 (15:30) 2.5 (15:30) 0 0 0 0 0
25-09-2018 18.6 (15:00) 8 (00:00) 13.3 10.83 (11:40) 6.11 (12:20) 0 0 0 0 0
24-09-2018 18.3 (00:00) 10.4 (00:00) 14.3 12.22 (12:10) 6.94 (13:20) 4.8 4.4 0.4 0 0
23-09-2018 25.2 (13:10) 15.6 (07:10) 20.4 10.83 (16:40) 8.06 (17:00) 0 0 0 0 0
22-09-2018 27.5 (16:00) 14.2 (08:30) 20.8 7.78 (14:30) 5.28 (17:00) 0 0 0 0 0
21-09-2018 21.4 (15:50) 14.1 (07:40) 17.8 7.22 (16:50) 4.72 (15:10) 0 0 0 0 0
20-09-2018 25.5 (16:50) 13.7 (08:30) 19.6 6.94 (15:10) 5 (15:10) 0 0 0 0 0

Gráficas

Temp. máximas Temp. mínimas Temp. medias Precipitaciones Rachas de viento máximas Velocidades máximas media en intervalos de 10 minutos

Datos horarios

Fecha y hora oficial Temperatura (ºC) Velocidad del viento (km/h) Dirección del viento Racha (km/h) Dirección de racha Precipitación (mm) Presión (hPa) Tendencia (hPa) Humedad (%)
2018-10-19 23:00:00 13.6 9 Este 10 Sudeste 0 -- -- 99
2018-10-19 22:00:00 14.4 4 Sudoeste 6 Sudoeste 0 -- -- 99
2018-10-19 21:00:00 14.5 0 Calma 8 Sudoeste 0 -- -- 99
2018-10-19 20:00:00 14.5 8 Sudoeste 13 Sudoeste 0 -- -- 98
2018-10-19 19:00:00 15.2 10 Sudoeste 15 Sudoeste 0 -- -- 94
2018-10-19 18:00:00 17.9 9 Oeste 15 Oeste 0 -- -- 85
2018-10-19 17:00:00 16.5 12 Oeste 19 Oeste 0 -- -- 91
2018-10-19 16:00:00 17.5 7 Noroeste 12 Noroeste 0 -- -- 88
2018-10-19 15:00:00 17.4 6 Oeste 16 Oeste 0 -- -- 87
2018-10-19 14:00:00 16.7 13 Oeste 18 Oeste 0 -- -- 90
2018-10-19 13:00:00 16.5 6 Oeste 12 Oeste 0 -- -- 89
2018-10-19 12:00:00 15 6 Noroeste 16 Oeste 0 -- -- 98
2018-10-19 11:00:00 13.6 10 Oeste 13 Oeste 0 -- -- 100
2018-10-19 10:00:00 13.1 2 Norte 5 Sudoeste 0 -- -- 100
2018-10-19 09:00:00 12.9 5 Oeste 7 Oeste 0 -- -- 100
2018-10-19 08:00:00 12.9 2 Oeste 9 Noroeste 0 -- -- 100
2018-10-19 07:00:00 13 6 Noroeste 9 Noroeste 0 -- -- 100
2018-10-19 06:00:00 13 4 Noroeste 13 Oeste 0 -- -- 100
2018-10-19 05:00:00 12.9 9 Noroeste 13 Noroeste 0 -- -- 100
2018-10-19 04:00:00 12.9 8 Noroeste 15 Noroeste 0 -- -- 100
2018-10-19 03:00:00 12.9 8 Noroeste 9 Noroeste 0 -- -- 99
2018-10-19 02:00:00 13.1 3 Nordeste 14 Oeste 0 -- -- 98
2018-10-19 01:00:00 13.2 8 Oeste 25 Oeste 0 -- -- 99
2018-10-19 00:00:00 12.8 14 Oeste 21 Oeste 0 -- -- 100
2018-10-18 23:00:00 12.7 9 Oeste 12 Oeste 0 -- -- 100
2018-10-18 22:00:00 12.8 10 Sudeste 13 Este 0 -- -- 100
2018-10-18 21:00:00 12.8 10 Sudeste 15 Sudeste 0 -- -- 99
2018-10-18 20:00:00 13.2 7 Sudeste 11 Sur 0.2 -- -- 97
2018-10-18 19:00:00 13.8 10 Sudeste 13 Sudeste 0.2 -- -- 95
2018-10-18 18:00:00 15 4 Sudoeste 12 Sur 0 -- -- 90
2018-10-18 17:00:00 15.3 5 Sudoeste 24 Oeste 0 -- -- 88
2018-10-18 16:00:00 17.1 11 Noroeste 23 Oeste 0 -- -- 82
2018-10-18 15:00:00 19.3 3 Este 18 Sudeste 0 -- -- 73
2018-10-18 14:00:00 18.7 4 Sudeste 11 Sudeste 0 -- -- 81
2018-10-18 13:00:00 15 6 Sur 14 Sudeste 0 -- -- 97
2018-10-18 12:00:00 14.1 5 Sudeste 10 Sudeste 0 -- -- 100
2018-10-18 11:00:00 13.4 3 Sudeste 12 Sudeste 0 -- -- 100
2018-10-18 10:00:00 12.7 8 Sudeste 13 Sudeste 0 -- -- 100
2018-10-18 09:00:00 12.5 0 Calma 4 Oeste 0 -- -- 100
2018-10-18 08:00:00 12.4 3 Sudoeste 4 Sudoeste 0.6 -- -- 100
2018-10-18 07:00:00 12.4 0 Calma 3 Nordeste 0 -- -- 100
2018-10-18 06:00:00 12.4 2 Este 7 Sudoeste 0 -- -- 100
2018-10-18 05:00:00 12.4 3 Sudoeste 8 Sur 0 -- -- 100
2018-10-18 04:00:00 12.3 4 Sur 13 Este 0 -- -- 100
2018-10-18 03:00:00 12.5 8 Sudeste 21 Este 0 -- -- 100
2018-10-18 02:00:00 12.2 6 Sudeste 13 Sudeste 0 -- -- 100
2018-10-18 01:00:00 12.5 4 Sudeste 8 Sudeste 0 -- -- 100
2018-10-18 00:00:00 12.4 2 Oeste 6 Sur 0 -- -- 100
2018-10-17 23:00:00 12.5 7 Sudeste 13 Sudeste 0 -- -- 99
2018-10-17 22:00:00 12.8 6 Sudeste 13 Este 0 -- -- 98
2018-10-17 21:00:00 13.1 8 Sudeste 12 Este 0.4 -- -- 97
2018-10-17 20:00:00 13.6 2 Sudeste 11 Sudoeste 0 -- -- 94
2018-10-17 19:00:00 14.5 8 Sudoeste 13 Sudoeste 0 -- -- 88
2018-10-17 18:00:00 17.5 4 Sudoeste 9 Sudoeste 0 -- -- 80
2018-10-17 17:00:00 18.3 3 Oeste 6 Sudoeste 0 -- -- 76
2018-10-17 16:00:00 18.5 4 Oeste 10 Oeste 0 -- -- 73
2018-10-17 15:00:00 19.1 4 Oeste 12 Sudoeste 0 -- -- 70
2018-10-17 14:00:00 18.9 3 Sudoeste 11 Sudoeste 0 -- -- 70
2018-10-17 13:00:00 17.6 4 Noroeste 8 Oeste 0 -- -- 80
2018-10-17 12:00:00 14.8 0 Calma 6 Sudeste 0 -- -- 89
2018-10-17 11:00:00 12.5 5 Sudeste 6 Sudeste 0 -- -- 100
2018-10-17 10:00:00 10.4 4 Oeste 4 Oeste 0 -- -- 100
2018-10-17 09:00:00 10 3 Sudoeste 5 Sudoeste 0 -- -- 100
2018-10-17 08:00:00 9.8 0 Calma 4 Sudoeste 0 -- -- 100
2018-10-17 07:00:00 10 3 Este 5 Sudeste 0 -- -- 100
2018-10-17 06:00:00 10.4 0 Calma 2 Sudoeste 0 -- -- 100
2018-10-17 05:00:00 10.5 0 Calma 3 Oeste 0 -- -- 100
2018-10-17 04:00:00 10.6 0 Calma 6 Oeste 0 -- -- 100
2018-10-17 03:00:00 10.6 2 Sudeste 6 Sudeste 0 -- -- 100
2018-10-17 02:00:00 10.9 7 Sudeste 12 Sudeste 0 -- -- 99
2018-10-17 01:00:00 11.4 3 Este 4 Sudeste 0 -- -- 98
2018-10-17 00:00:00 11.7 0 Calma 12 Sudeste 0 -- -- 98
2018-10-16 23:00:00 11.9 7 Sudeste 12 Este 0 -- -- 98
2018-10-16 22:00:00 12.1 7 Sudeste 11 Sudeste 0 -- -- 95
2018-10-16 21:00:00 12.5 9 Este 15 Este 0 -- -- 93
2018-10-16 20:00:00 13.3 11 Sudeste 20 Este 0 -- -- 87
2018-10-16 19:00:00 15.5 14 Sudeste 24 Este 0 -- -- 78
2018-10-16 18:00:00 18.3 9 Sudeste 19 Este 0 -- -- 67
2018-10-16 17:00:00 18.8 9 Sudeste 19 Sudeste 0 -- -- 65
2018-10-16 16:00:00 19.4 5 Sur 15 Sur 0 -- -- 61
2018-10-16 15:00:00 20.8 7 Sudeste 14 Sudeste 0 -- -- 57
2018-10-16 14:00:00 20.3 6 Sudeste 14 Sudeste 0 -- -- 57
2018-10-16 13:00:00 18.1 3 Nordeste 9 Oeste 0 -- -- 68
2018-10-16 12:00:00 16.2 4 Oeste 8 Oeste 0 -- -- 73
2018-10-16 11:00:00 12.6 4 Sudoeste 6 Sudoeste 0 -- -- 89
2018-10-16 10:00:00 10.7 2 Sudeste 4 Este 0 -- -- 93
2018-10-16 09:00:00 10 3 Sudoeste 4 Sudoeste 0 -- -- 93
2018-10-16 08:00:00 10.1 0 Calma 8 Oeste 0 -- -- 93
2018-10-16 07:00:00 10.4 0 Calma 6 Este 0 -- -- 92
2018-10-16 06:00:00 10.6 2 Este 4 Nordeste 0 -- -- 91
2018-10-16 05:00:00 10.6 0 Calma 5 Sudeste 0 -- -- 91
2018-10-16 04:00:00 10.9 0 Calma 13 Oeste 0 -- -- 88
2018-10-16 03:00:00 11.2 7 Oeste 10 Oeste 0 -- -- 89
2018-10-16 02:00:00 11.7 2 Oeste 8 Oeste 0 -- -- 87
2018-10-16 01:00:00 11.9 4 Sudoeste 5 Oeste 0 -- -- 87
2018-10-16 00:00:00 12.5 0 Calma 6 Oeste 0 -- -- 81
2018-10-15 23:00:00 12.4 4 Oeste 6 Oeste 0 -- -- 83
2018-10-15 22:00:00 12.4 8 Este 16 Sudeste 0 -- -- 83
2018-10-15 21:00:00 12.8 5 Sudeste 18 Oeste 0 -- -- 84
2018-10-15 20:00:00 13 15 Oeste 19 Oeste 0 -- -- 81
2018-10-15 19:00:00 14.4 13 Oeste 18 Oeste 0 -- -- 74
2018-10-15 18:00:00 17.7 11 Sudoeste 18 Sudoeste 0 -- -- 61
2018-10-15 17:00:00 19.4 13 Oeste 19 Sudoeste 0 -- -- 57
2018-10-15 16:00:00 19.2 12 Oeste 17 Oeste 0 -- -- 53
2018-10-15 15:00:00 18.8 8 Sudoeste 14 Oeste 0 -- -- 57
2018-10-15 14:00:00 16.6 4 Noroeste 9 Oeste 0 -- -- 66
2018-10-15 13:00:00 15.1 3 Noroeste 13 Sudoeste 0 -- -- 76
2018-10-15 12:00:00 16.3 4 Sudeste 18 Sur 0 -- -- 71
2018-10-15 11:00:00 12.4 5 Este 10 Sudoeste 0 -- -- 87
2018-10-15 10:00:00 9.3 12 Sudoeste 19 Sudeste 0 -- -- 92
2018-10-15 09:00:00 8.6 8 Nordeste 23 Sudeste 0 -- -- 92
2018-10-15 08:00:00 8.6 15 Sudeste 27 Sudeste 0 -- -- 92
2018-10-15 07:00:00 7.8 13 Sudeste 19 Sudeste 0 -- -- 96
2018-10-15 06:00:00 7.3 4 Sudeste 14 Este 0 -- -- 97
2018-10-15 05:00:00 7.3 7 Sudeste 16 Sudeste 0 -- -- 97
2018-10-15 04:00:00 7.7 9 Sudeste 14 Este 0 -- -- 95
2018-10-15 03:00:00 8.4 5 Sudeste 12 Sudeste 0 -- -- 92
2018-10-15 02:00:00 8.5 9 Sudeste 17 Sudeste 0 -- -- 93
2018-10-15 01:00:00 8.5 13 Sudeste 15 Sudeste 0 -- -- 94
2018-10-15 00:00:00 9.1 9 Sudeste 16 Sudeste 0 -- -- 89
2018-10-14 23:00:00 9.5 10 Noroeste 24 Noroeste 0 -- -- 88
2018-10-14 22:00:00 9.7 10 Noroeste 17 Noroeste 0 -- -- 91
2018-10-14 21:00:00 9.8 8 Norte 45 Oeste 0.4 -- -- 97
2018-10-14 20:00:00 10.5 20 Noroeste 37 Oeste 0.8 -- -- 99
2018-10-14 19:00:00 11 12 Noroeste 30 Noroeste 0.2 -- -- 98
2018-10-14 18:00:00 11.6 13 Noroeste 30 Norte 0.2 -- -- 90
2018-10-14 17:00:00 11.8 15 Noroeste 28 Oeste 0 -- -- 89
2018-10-14 16:00:00 11.9 13 Noroeste 22 Norte 0 -- -- 91
2018-10-14 15:00:00 11.1 15 Noroeste 24 Noroeste 0.2 -- -- 96
2018-10-14 14:00:00 11 18 Noroeste 33 Norte 0.2 -- -- 98
2018-10-14 13:00:00 10.9 22 Norte 33 Noroeste 0 -- -- 99
2018-10-14 12:00:00 10.7 15 Noroeste 23 Norte 0.6 -- -- 100
2018-10-14 11:00:00 9.6 13 Noroeste 35 Norte 0.6 -- -- 100
2018-10-14 10:00:00 9.5 23 Noroeste 56 Oeste 0.2 -- -- 100
2018-10-14 09:00:00 10.2 31 Oeste 55 Oeste 2.2 -- -- 100
2018-10-14 08:00:00 11.1 31 Noroeste 47 Noroeste 1.6 -- -- 100
2018-10-14 07:00:00 11.9 12 Noroeste 22 Oeste 1 -- -- 100
2018-10-14 06:00:00 11.9 15 Oeste 30 Oeste 0 -- -- 100
2018-10-14 05:00:00 12.1 18 Oeste 28 Oeste 0.6 -- -- 100
2018-10-14 04:00:00 12.6 15 Oeste 30 Oeste 3.4 -- -- 99
2018-10-14 03:00:00 13.8 22 Noroeste 32 Noroeste 0.6 -- -- 97
2018-10-14 02:00:00 15.2 19 Oeste 32 Noroeste 0 -- -- 95
2018-10-14 01:00:00 15.7 24 Noroeste 39 Noroeste 0 -- -- 92
2018-10-14 00:00:00 17.6 26 Noroeste 33 Noroeste 0 -- -- 79
2018-10-13 23:00:00 19.3 11 Sudeste 18 Sudeste 0 -- -- 68
2018-10-13 22:00:00 20.4 14 Sudeste 21 Sudeste 0 -- -- 63
2018-10-13 21:00:00 20.3 13 Sudeste 20 Sur 0 -- -- 66
2018-10-13 20:00:00 21.5 11 Sudeste 15 Sudeste 0 -- -- 61
2018-10-13 19:00:00 23 4 Este 22 Noroeste 0 -- -- 55
2018-10-13 18:00:00 24.7 11 Oeste 28 Oeste 0 -- -- 50
2018-10-13 17:00:00 27.3 9 Oeste 25 Oeste 0 -- -- 42
2018-10-13 16:00:00 29.2 15 Sudoeste 32 Sur 0 -- -- 39
2018-10-13 15:00:00 30 12 Sudoeste 23 Sudoeste 0 -- -- 35
2018-10-13 14:00:00 29.6 5 Sudeste 14 Nordeste 0 -- -- 40
2018-10-13 13:00:00 28.8 10 Este 42 Sudoeste 0 -- -- 39
2018-10-13 12:00:00 27 15 Sudoeste 55 Sur 0 -- -- 42
2018-10-13 11:00:00 24.1 12 Sudeste 44 Sudoeste 0 -- -- 49
2018-10-13 10:00:00 21.4 7 Nordeste 41 Sudoeste 0 -- -- 58
2018-10-13 09:00:00 20.9 7 Oeste 41 Sur 0 -- -- 56
2018-10-13 08:00:00 21.6 15 Sur 46 Oeste 0 -- -- 54
2018-10-13 07:00:00 20.7 11 Sudeste 26 Sur 0 -- -- 57
2018-10-13 06:00:00 21.4 5 Sur 24 Este 0 -- -- 54
2018-10-13 05:00:00 19.2 10 Este 18 Noroeste 0 -- -- 62
2018-10-13 04:00:00 19 12 Nordeste 24 Este 0 -- -- 62
2018-10-13 03:00:00 20.1 4 Norte 25 Noroeste 0 -- -- 58
2018-10-13 02:00:00 19.5 5 Este 15 Nordeste 0 -- -- 60
2018-10-13 01:00:00 19.8 5 Nordeste 23 Sudoeste 0 -- -- 60
2018-10-13 00:00:00 20 6 Este 18 Este 0 -- -- 60
2018-10-12 23:00:00 19.7 11 Nordeste 19 Nordeste 0 -- -- 61
2018-10-12 22:00:00 20.3 6 Este 23 Sudoeste 0 -- -- 57
2018-10-12 21:00:00 20.5 8 Sudeste 24 Este 0 -- -- 57
2018-10-12 20:00:00 21.4 7 Nordeste 25 Oeste 0 -- -- 54
2018-10-12 19:00:00 24.6 9 Noroeste 22 Nordeste 0 -- -- 48
2018-10-12 18:00:00 26.1 14 Sudoeste 38 Sudoeste 0 -- -- 43
2018-10-12 17:00:00 26.9 10 Este 32 Sudoeste 0 -- -- 42
2018-10-12 16:00:00 26.2 8 Sur 18 Este 0 -- -- 43
2018-10-12 15:00:00 25.5 7 Sudeste 14 Nordeste 0 -- -- 42
2018-10-12 14:00:00 26.3 10 Sudeste 14 Este 0 -- -- 40
2018-10-12 13:00:00 23.1 11 Oeste 21 Oeste 0 -- -- 43
2018-10-12 12:00:00 21.2 9 Oeste 14 Sudeste 0 -- -- 49
2018-10-12 11:00:00 19.9 8 Sur 29 Sur 0 -- -- 48
2018-10-12 10:00:00 18.3 13 Sudeste 31 Sudoeste 0 -- -- 45
2018-10-12 09:00:00 16.5 9 Oeste 32 Sudeste 0 -- -- 50
2018-10-12 08:00:00 18.3 10 Sur 50 Sur 0 -- -- 43
2018-10-12 07:00:00 18.1 24 Oeste 62 Oeste 0 -- -- 42
2018-10-12 06:00:00 17.1 12 Oeste 39 Oeste 0 -- -- 46
2018-10-12 05:00:00 18.1 19 Oeste 67 Sudoeste 0 -- -- 42
2018-10-12 04:00:00 19.2 15 Sudoeste 49 Sudoeste 0 -- -- 39
2018-10-12 03:00:00 19.7 24 Sudoeste 69 Sudoeste 0 -- -- 43
2018-10-12 02:00:00 19.1 27 Sudoeste 71 Sudoeste 0 -- -- 45
2018-10-12 01:00:00 18.6 42 Sudoeste 80 Sudoeste 0 -- -- 51
2018-10-12 00:00:00 14.5 18 Sur 55 Oeste 0 -- -- 70
2018-10-11 23:00:00 12.9 14 Sur 44 Sudoeste 0 -- -- 89
2018-10-11 22:00:00 12.5 6 Oeste 29 Este 0 -- -- 93
2018-10-11 21:00:00 12.7 12 Este 33 Este 0 -- -- 93
2018-10-11 20:00:00 13 15 Sudeste 31 Este 0 -- -- 92
2018-10-11 19:00:00 14.4 10 Este 26 Sudeste 0 -- -- 89
2018-10-11 18:00:00 15.4 11 Este 28 Este 0 -- -- 92
2018-10-11 17:00:00 16.6 5 Sudeste 15 Este 0 -- -- 95
2018-10-11 16:00:00 15.9 5 Sudeste 14 Noroeste 0.2 -- -- 97
2018-10-11 15:00:00 14.8 5 Oeste 19 Noroeste 0.6 -- -- 97
2018-10-11 14:00:00 14.5 15 Noroeste 48 Oeste 1.6 -- -- 98
2018-10-11 13:00:00 17.3 30 Noroeste 51 Oeste 0.4 -- -- 79
2018-10-11 12:00:00 21.4 19 Sur 29 Sur 0 -- -- 55
2018-10-11 11:00:00 18.8 24 Sur 66 Sur 0 -- -- 69
2018-10-11 10:00:00 16.5 17 Sudoeste 42 Sur 0.4 -- -- 73
2018-10-11 09:00:00 18.5 15 Norte 28 Norte 0 -- -- 58
2018-10-11 08:00:00 18.2 10 Noroeste 28 Este 0 -- -- 55
2018-10-11 07:00:00 18.7 13 Este 32 Sur 0 -- -- 56
2018-10-11 06:00:00 19.4 9 Norte 33 Norte 0 -- -- 53
2018-10-11 05:00:00 19.2 6 Sudeste 46 Sudoeste 0 -- -- 51
2018-10-11 04:00:00 19 12 Este 45 Este 0 -- -- 49
2018-10-11 03:00:00 20.2 25 Sudoeste 64 Este 0 -- -- 43
2018-10-11 02:00:00 19.2 22 Sur 68 Sur 0 -- -- 45
2018-10-11 01:00:00 19.1 14 Oeste 54 Sudoeste 0 -- -- 46
2018-10-11 00:00:00 19.5 24 Sudoeste 76 Sudoeste 0 -- -- 46
2018-10-10 23:00:00 16.5 10 Sudeste 28 Sur 0 -- -- 57
2018-10-10 22:00:00 16 10 Sudoeste 39 Sudoeste 0 -- -- 57
2018-10-10 21:00:00 16.3 6 Este 22 Este 0 -- -- 60
2018-10-10 20:00:00 18.6 11 Sudeste 55 Sudoeste 0 -- -- 52
2018-10-10 19:00:00 20.9 25 Sudoeste 52 Sudoeste 0 -- -- 40
2018-10-10 18:00:00 22.5 22 Sudoeste 39 Sudoeste 0 -- -- 37
2018-10-10 17:00:00 23.1 14 Sudoeste 52 Sudoeste 0 -- -- 38
2018-10-10 16:00:00 23.1 15 Oeste 50 Sudoeste 0 -- -- 39
2018-10-10 15:00:00 21.9 20 Sudoeste 51 Sudoeste 0 -- -- 40
2018-10-10 14:00:00 23 24 Sudoeste 46 Sudoeste 0 -- -- 37
2018-10-10 13:00:00 21.1 26 Sudoeste 40 Oeste 0 -- -- 40
2018-10-10 12:00:00 19.5 12 Sudoeste 33 Sur 0 -- -- 51
2018-10-10 11:00:00 14.9 4 Este 16 Este 0 -- -- 66
2018-10-10 10:00:00 14 7 Este 15 Este 0 -- -- 69
2018-10-10 09:00:00 11.9 10 Sudeste 23 Sudeste 0 -- -- 70
2018-10-10 08:00:00 12.5 10 Sudeste 25 Sudoeste 0 -- -- 66
2018-10-10 07:00:00 12.3 5 Noroeste 12 Sudoeste 0 -- -- 66
2018-10-10 06:00:00 12.5 5 Oeste 16 Este 0 -- -- 67
2018-10-10 05:00:00 12.7 9 Este 15 Este 0 -- -- 66
2018-10-10 04:00:00 13.2 9 Este 23 Este 0 -- -- 64
2018-10-10 03:00:00 13.8 8 Este 22 Este 0 -- -- 63
2018-10-10 02:00:00 14.1 10 Sudeste 30 Sudeste 0 -- -- 61
2018-10-10 01:00:00 13.6 18 Sudeste 30 Este 0 -- -- 69
2018-10-10 00:00:00 13.3 10 Este 19 Este 0 -- -- 78
2018-10-09 23:00:00 13 8 Sudeste 16 Sudeste 0 -- -- 91
2018-10-09 22:00:00 13.3 9 Sudeste 12 Sudeste 0 -- -- 92
2018-10-09 21:00:00 14.1 2 Sudeste 6 Oeste 0 -- -- 89
2018-10-09 20:00:00 15.1 6 Sudeste 19 Sudeste 0 -- -- 85
2018-10-09 19:00:00 17.6 15 Sudeste 24 Sudeste 0 -- -- 75
2018-10-09 18:00:00 19 14 Sudeste 26 Sudeste 0 -- -- 67
2018-10-09 17:00:00 20.5 9 Sudeste 23 Sudeste 0 -- -- 61
2018-10-09 16:00:00 19.8 15 Sudeste 28 Este 0 -- -- 59
2018-10-09 15:00:00 20.6 10 Sudeste 22 Sudeste 0 -- -- 57
2018-10-09 14:00:00 19.5 6 Sudeste 10 Sudeste 0 -- -- 64
2018-10-09 13:00:00 17.6 4 Sur 11 Este 0 -- -- 73
2018-10-09 12:00:00 14.8 3 Sudeste 8 Este 0 -- -- 84
2018-10-09 11:00:00 11.4 3 Sudoeste 4 Sudoeste 0 -- -- 100
2018-10-09 10:00:00 9 2 Nordeste 6 Sudeste 0 -- -- 100
2018-10-09 09:00:00 8.3 0 Calma 6 Este 0 -- -- 100
2018-10-09 08:00:00 8.8 0 Calma 4 Sudeste 0 -- -- 100
2018-10-09 07:00:00 9.4 0 Calma 4 Oeste 0 -- -- 100
2018-10-09 06:00:00 9.3 3 Sudoeste 8 Sudoeste 0 -- -- 100
2018-10-09 05:00:00 9.4 0 Calma 18 Sudeste 0 -- -- 99
2018-10-09 04:00:00 10.1 12 Sudeste 21 Sudeste 0 -- -- 100
2018-10-09 03:00:00 10.4 12 Sudeste 17 Sudeste 0 -- -- 100
2018-10-09 02:00:00 10.7 11 Sudeste 25 Sudeste 0 -- -- 98
2018-10-09 01:00:00 11.5 13 Sudeste 29 Sudeste 0 -- -- 99
2018-10-09 00:00:00 11.7 17 Sudeste 24 Sudeste 0 -- -- 98
2018-10-08 23:00:00 12.1 8 Sudeste 21 Sudeste 0 -- -- 98
2018-10-08 22:00:00 12.2 11 Sudeste 27 Este 0 -- -- 95
2018-10-08 21:00:00 12.6 15 Este 36 Este 0 -- -- 94
2018-10-08 20:00:00 13.2 12 Este 33 Este 0 -- -- 90
2018-10-08 19:00:00 14.5 21 Este 35 Este 0 -- -- 86
2018-10-08 18:00:00 15.5 16 Este 37 Este 0 -- -- 79
2018-10-08 17:00:00 17.2 19 Este 36 Este 0 -- -- 73
2018-10-08 16:00:00 17.8 16 Este 30 Este 0 -- -- 73
2018-10-08 15:00:00 17.7 19 Este 34 Este 0 -- -- 71
2018-10-08 14:00:00 18.1 13 Este 31 Este 0 -- -- 67
2018-10-08 13:00:00 17.4 7 Sudeste 16 Sudeste 0 -- -- 77
2018-10-08 12:00:00 13.4 3 Este 6 Sur 0 -- -- 91
2018-10-08 11:00:00 11 0 Calma 4 Sudeste 0 -- -- 97
2018-10-08 10:00:00 9.5 0 Calma 7 Sudoeste 0 -- -- 95
2018-10-08 09:00:00 9.2 0 Calma 8 Este 0 -- -- 94
2018-10-08 08:00:00 9.4 5 Nordeste 7 Nordeste 0 -- -- 89
2018-10-08 07:00:00 9.5 3 Sudoeste 9 Oeste 0 -- -- 83
2018-10-08 06:00:00 9.6 2 Oeste 4 Sudoeste 0 -- -- 81
2018-10-08 05:00:00 9.5 0 Calma 4 Norte 0 -- -- 82
2018-10-08 04:00:00 9.3 3 Oeste 8 Noroeste 0 -- -- 84
2018-10-08 03:00:00 9.4 4 Oeste 12 Noroeste 0 -- -- 84
2018-10-08 02:00:00 9.4 4 Noroeste 12 Noroeste 0 -- -- 84
2018-10-08 01:00:00 9.1 9 Noroeste 15 Noroeste 0 -- -- 90
2018-10-08 00:00:00 9.3 11 Noroeste 15 Oeste 0 -- -- 88
2018-10-07 23:00:00 9.4 6 Oeste 14 Oeste 0 -- -- 85
2018-10-07 22:00:00 9.3 5 Norte 15 Oeste 0 -- -- 86
2018-10-07 21:00:00 9.5 10 Oeste 25 Oeste 0 -- -- 83
2018-10-07 20:00:00 10.3 18 Oeste 29 Oeste 0 -- -- 81
2018-10-07 19:00:00 10.8 20 Oeste 30 Sudoeste 0 -- -- 79
2018-10-07 18:00:00 11.2 21 Oeste 31 Oeste 0 -- -- 79
2018-10-07 17:00:00 11.3 21 Oeste 27 Oeste 0 -- -- 80
2018-10-07 16:00:00 11.6 13 Oeste 22 Sudoeste 0 -- -- 84
2018-10-07 15:00:00 10.4 8 Oeste 20 Oeste 0.2 -- -- 94
2018-10-07 14:00:00 10.4 14 Noroeste 21 Oeste 0.2 -- -- 94
2018-10-07 13:00:00 11.5 10 Oeste 23 Sudoeste 0 -- -- 86
2018-10-07 12:00:00 11 8 Oeste 24 Noroeste 0.2 -- -- 97
2018-10-07 11:00:00 9.1 17 Noroeste 33 Noroeste 0.4 -- -- 98
2018-10-07 10:00:00 8.5 9 Noroeste 21 Oeste 0.2 -- -- 99
2018-10-07 09:00:00 8.1 13 Noroeste 26 Noroeste 0 -- -- 98
2018-10-07 08:00:00 7.9 9 Noroeste 17 Norte 0 -- -- 98
2018-10-07 07:00:00 8.1 9 Norte 19 Norte 0.4 -- -- 98
2018-10-07 06:00:00 7.7 9 Norte 18 Oeste 0 -- -- 98
2018-10-07 05:00:00 7.9 13 Noroeste 23 Oeste 0 -- -- 98
2018-10-07 04:00:00 8.1 10 Noroeste 21 Oeste 0.2 -- -- 98
2018-10-07 03:00:00 8.4 15 Noroeste 24 Noroeste 0.4 -- -- 97
2018-10-07 02:00:00 8.9 23 Noroeste 41 Oeste 0.2 -- -- 88
2018-10-07 01:00:00 8.7 15 Noroeste 24 Noroeste 0 -- -- 95
2018-10-07 00:00:00 9 18 Oeste 30 Noroeste 0.2 -- -- 98
2018-10-06 23:00:00 9.3 15 Noroeste 49 Oeste 1.2 -- -- 98
2018-10-06 22:00:00 9.6 19 Noroeste 31 Oeste 0.6 -- -- 98
2018-10-06 21:00:00 10 17 Noroeste 33 Oeste 0 -- -- 93
2018-10-06 20:00:00 10.2 22 Noroeste 47 Oeste 0.2 -- -- 94
2018-10-06 19:00:00 11.1 21 Noroeste 50 Noroeste 0 -- -- 88
2018-10-06 18:00:00 11 20 Oeste 54 Oeste 1 -- -- 88
2018-10-06 17:00:00 11.2 31 Oeste 71 Oeste 0.2 -- -- 83
2018-10-06 16:00:00 10.9 37 Noroeste 70 Oeste 1 -- -- 97
2018-10-06 15:00:00 13.9 32 Noroeste 51 Norte 0 -- -- 85
2018-10-06 14:00:00 16.9 34 Noroeste 48 Noroeste 0 -- -- 66
2018-10-06 13:00:00 17.7 21 Norte 37 Norte 0 -- -- 65
2018-10-06 12:00:00 16.3 14 Norte 30 Noroeste 0 -- -- 71
2018-10-06 11:00:00 13.1 4 Sudoeste 6 Sudoeste 0 -- -- 86
2018-10-06 10:00:00 11.3 2 Sur 11 Oeste 0 -- -- 90
2018-10-06 09:00:00 9.9 9 Oeste 12 Oeste 0 -- -- 90
2018-10-06 08:00:00 10 9 Noroeste 19 Noroeste 0 -- -- 87
2018-10-06 07:00:00 10.7 9 Noroeste 14 Oeste 0 -- -- 81
2018-10-06 06:00:00 11.3 10 Oeste 14 Oeste 0 -- -- 82
2018-10-06 05:00:00 12 3 Sudoeste 7 Sudoeste 0 -- -- 81
2018-10-06 04:00:00 11.6 6 Sudoeste 8 Sudoeste 0 -- -- 80
2018-10-06 03:00:00 11.9 3 Sudoeste 6 Oeste 0 -- -- 80
2018-10-06 02:00:00 12.3 3 Este 5 Este 0 -- -- 76
2018-10-06 01:00:00 12.8 5 Este 7 Este 0 -- -- 71
2018-10-06 00:00:00 13.5 3 Este 6 Sudoeste 0 -- -- 64
2018-10-05 23:00:00 14.5 5 Sudeste 10 Oeste 0 -- -- 67
2018-10-05 22:00:00 15.8 7 Oeste 12 Oeste 0 -- -- 50
2018-10-05 21:00:00 16.8 9 Oeste 14 Oeste 0 -- -- 45
2018-10-05 20:00:00 18.4 10 Oeste 22 Oeste 0 -- -- 45
2018-10-05 19:00:00 21.5 16 Oeste 24 Oeste 0 -- -- 43
2018-10-05 18:00:00 23.5 18 Oeste 24 Sudoeste 0 -- -- 43
2018-10-05 17:00:00 25.9 15 Oeste 21 Oeste 0 -- -- 45
2018-10-05 16:00:00 25.7 10 Oeste 19 Oeste 0 -- -- 45
2018-10-05 15:00:00 25.1 6 Oeste 15 Oeste 0 -- -- 43
2018-10-05 14:00:00 24.1 8 Noroeste 15 Noroeste 0 -- -- 42
2018-10-05 13:00:00 23.2 2 Norte 8 Nordeste 0 -- -- 50
2018-10-05 12:00:00 21.7 3 Sudoeste 5 Sudoeste 0 -- -- 47
2018-10-05 11:00:00 17.8 2 Sudoeste 4 Sur 0 -- -- 59
2018-10-05 10:00:00 15.1 0 Calma 8 Sudoeste 0 -- -- 47
2018-10-05 09:00:00 13.6 3 Este 6 Este 0 -- -- 53
2018-10-05 08:00:00 14.3 0 Calma 4 Oeste 0 -- -- 47
2018-10-05 07:00:00 13.9 3 Sudoeste 4 Sudoeste 0 -- -- 54
2018-10-05 06:00:00 13.9 0 Calma 5 Este 0 -- -- 53
2018-10-05 05:00:00 14.1 0 Calma 4 Nordeste 0 -- -- 52
2018-10-05 04:00:00 14 3 Este 5 Sudoeste 0 -- -- 55
2018-10-05 03:00:00 14.1 2 Este 6 Este 0 -- -- 61
2018-10-05 02:00:00 15.1 0 Calma 4 Noroeste 0 -- -- 62
2018-10-05 01:00:00 15.2 0 Calma 5 Este 0 -- -- 67
2018-10-05 00:00:00 15.7 0 Calma 4 Este 0 -- -- 66
2018-10-04 23:00:00 15.9 0 Calma 2 Este 0 -- -- 76
2018-10-04 22:00:00 16.6 0 Calma 2 Sudoeste 0 -- -- 76
2018-10-04 21:00:00 17.8 0 Calma 10 Sur 0 -- -- 71
2018-10-04 20:00:00 21.4 0 Calma 9 Noroeste 0 -- -- 57
2018-10-04 19:00:00 25.1 4 Oeste 13 Oeste 0 -- -- 50
2018-10-04 18:00:00 26.4 8 Oeste 15 Oeste 0 -- -- 43
2018-10-04 17:00:00 27.2 9 Oeste 15 Sudeste 0 -- -- 42
2018-10-04 16:00:00 26.9 5 Sudoeste 10 Oeste 0 -- -- 34
2018-10-04 15:00:00 26.9 6 Sur 10 Sur 0 -- -- 37
2018-10-04 14:00:00 24.6 4 Sudeste 9 Sudeste 0 -- -- 36
2018-10-04 13:00:00 21.9 4 Sudeste 7 Sudeste 0 -- -- 53
2018-10-04 12:00:00 18.4 0 Calma 8 Sur 0 -- -- 69
2018-10-04 11:00:00 15 4 Sudeste 8 Sudeste 0 -- -- 78
2018-10-04 10:00:00 12.1 3 Sudeste 11 Sudeste 0 -- -- 88
2018-10-04 09:00:00 10.7 4 Sudeste 9 Sudeste 0 -- -- 92
2018-10-04 08:00:00 10.7 4 Sudeste 10 Sudeste 0 -- -- 90
2018-10-04 07:00:00 10.7 3 Sudeste 10 Este 0 -- -- 95
2018-10-04 06:00:00 11 8 Sudeste 10 Este 0 -- -- 97
2018-10-04 05:00:00 11.7 2 Este 8 Este 0 -- -- 97
2018-10-04 04:00:00 11.8 5 Este 13 Sudeste 0 -- -- 97
2018-10-04 03:00:00 11.9 8 Sudeste 12 Sudeste 0 -- -- 97
2018-10-04 02:00:00 12.5 7 Sur 15 Sudeste 0 -- -- 95
2018-10-04 01:00:00 13.1 11 Sudeste 19 Sudeste 0 -- -- 94
2018-10-04 00:00:00 13.7 10 Sudeste 22 Sudeste 0 -- -- 92
2018-10-03 23:00:00 14.1 20 Sudeste 27 Sudeste 0 -- -- 91
2018-10-03 22:00:00 14.6 19 Sudeste 24 Sudeste 0 -- -- 88
2018-10-03 21:00:00 15.1 19 Sudeste 32 Sudeste 0 -- -- 86
2018-10-03 20:00:00 16.5 15 Sudeste 35 Sudeste 0 -- -- 80
2018-10-03 19:00:00 19.9 15 Sudeste 41 Sudeste 0 -- -- 67
2018-10-03 18:00:00 20.6 24 Sudeste 45 Sudeste 0 -- -- 63
2018-10-03 17:00:00 21.2 21 Sudeste 42 Sudeste 0 -- -- 61
2018-10-03 16:00:00 22.2 18 Sudeste 36 Sudeste 0 -- -- 58
2018-10-03 15:00:00 23.2 13 Sudeste 28 Sudeste 0 -- -- 51
2018-10-03 14:00:00 22.5 11 Sudeste 23 Sudeste 0 -- -- 52
2018-10-03 13:00:00 20.5 10 Sudeste 24 Sudeste 0 -- -- 49
2018-10-03 12:00:00 17.4 10 Sudeste 22 Sudeste 0 -- -- 59
2018-10-03 11:00:00 13.6 11 Sudeste 18 Sudeste 0.4 -- -- 70
2018-10-03 10:00:00 10.5 3 Sur 10 Este 0 -- -- 86
2018-10-03 09:00:00 8.7 7 Sudeste 15 Sudeste 0 -- -- 89
2018-10-03 08:00:00 8.5 8 Sudeste 16 Sudeste 0 -- -- 89
2018-10-03 07:00:00 8.9 7 Sudeste 16 Sudeste 0 -- -- 89
2018-10-03 06:00:00 8.8 10 Este 13 Este 0 -- -- 92
2018-10-03 05:00:00 8.6 8 Sudeste 20 Sudeste 0 -- -- 95
2018-10-03 04:00:00 8.7 12 Sudeste 23 Sudeste 0 -- -- 97
2018-10-03 03:00:00 8.9 9 Sudeste 21 Sudeste 0 -- -- 97
2018-10-03 02:00:00 9 4 Sur 16 Sudeste 0 -- -- 97
2018-10-03 01:00:00 9.7 10 Sudeste 15 Este 0 -- -- 94
2018-10-03 00:00:00 10 2 Este 8 Sudeste 0 -- -- 93
2018-10-02 23:00:00 10.4 4 Sudeste 8 Sudeste 0 -- -- 91
2018-10-02 22:00:00 10.6 3 Sudeste 14 Sudeste 0 -- -- 90
2018-10-02 21:00:00 11.2 11 Sudeste 21 Sudeste 0 -- -- 87
2018-10-02 20:00:00 12.9 12 Sudeste 26 Este 0 -- -- 79
2018-10-02 19:00:00 15.6 14 Este 27 Sudeste 0 -- -- 71
2018-10-02 18:00:00 16.8 17 Este 36 Este 0 -- -- 67
2018-10-02 17:00:00 18.1 18 Este 32 Este 0 -- -- 62
2018-10-02 16:00:00 18.4 19 Este 32 Este 0 -- -- 61
2018-10-02 15:00:00 19.3 13 Sudeste 28 Este 0 -- -- 56
2018-10-02 14:00:00 18.5 13 Sudeste 27 Este 0 -- -- 59
2018-10-02 13:00:00 17.2 10 Sudeste 30 Este 0 -- -- 63
2018-10-02 12:00:00 15.4 10 Sudeste 28 Sudeste 0 -- -- 67
2018-10-02 11:00:00 12.4 8 Sudeste 17 Sudeste 0 -- -- 82
2018-10-02 10:00:00 9.2 8 Sudeste 12 Sudeste 0 -- -- 94
2018-10-02 09:00:00 7.5 7 Sudeste 9 Sudeste 0 -- -- 98
2018-10-02 08:00:00 7.7 3 Este 4 Este 0 -- -- 96
2018-10-02 07:00:00 7.9 2 Sudoeste 6 Sudeste 0 -- -- 95
2018-10-02 06:00:00 8.6 6 Sudeste 12 Este 0 -- -- 95
2018-10-02 05:00:00 9 9 Sudeste 15 Este 0 -- -- 94
2018-10-02 04:00:00 9.4 9 Sudeste 12 Este 0 -- -- 93
2018-10-02 03:00:00 9.8 8 Sudeste 14 Sudeste 0 -- -- 92
2018-10-02 02:00:00 10.3 9 Sudeste 20 Sudeste 0 -- -- 90
2018-10-02 01:00:00 10.5 9 Sudeste 20 Sudeste 0 -- -- 91
2018-10-02 00:00:00 10.6 8 Sudeste 20 Sudeste 0 -- -- 92
2018-10-01 23:00:00 10.9 11 Sudeste 17 Sudeste 0 -- -- 91
2018-10-01 22:00:00 11.5 10 Este 17 Este 0 -- -- 89
2018-10-01 21:00:00 11.9 11 Sudeste 25 Sudeste 0 -- -- 86
2018-10-01 20:00:00 12.4 16 Sudeste 26 Sudeste 0 -- -- 84
2018-10-01 19:00:00 13.4 8 Este 31 Este 0 -- -- 83
2018-10-01 18:00:00 15 20 Este 33 Este 0 -- -- 77
2018-10-01 17:00:00 16.2 12 Sudeste 27 Sudeste 0 -- -- 70
2018-10-01 16:00:00 16.3 6 Nordeste 24 Nordeste 0 -- -- 72
2018-10-01 15:00:00 18.3 6 Nordeste 21 Nordeste 0 -- -- 63
2018-10-01 14:00:00 17.3 5 Sudoeste 9 Sudoeste 0 -- -- 65
2018-10-01 13:00:00 17 5 Sur 12 Este 0 -- -- 66
2018-10-01 12:00:00 14.9 4 Norte 9 Norte 0 -- -- 82
2018-10-01 11:00:00 14 5 Noroeste 9 Oeste 0 -- -- 85
2018-10-01 10:00:00 13.2 7 Noroeste 10 Oeste 0 -- -- 87
2018-10-01 09:00:00 12.2 8 Sudoeste 13 Oeste 0 -- -- 91
2018-10-01 08:00:00 12.3 10 Oeste 15 Oeste 0 -- -- 92
2018-10-01 07:00:00 12.6 13 Oeste 18 Oeste 0 -- -- 89
2018-10-01 06:00:00 12.6 10 Oeste 16 Oeste 0 -- -- 92
2018-10-01 05:00:00 12.7 9 Oeste 16 Oeste 0 -- -- 92
2018-10-01 04:00:00 12.9 10 Sudoeste 19 Noroeste 0 -- -- 93
2018-10-01 03:00:00 13.2 13 Oeste 20 Oeste 0 -- -- 92
2018-10-01 02:00:00 13.1 12 Noroeste 18 Oeste 0 -- -- 93
2018-10-01 01:00:00 13.4 14 Oeste 19 Noroeste 0 -- -- 92
2018-10-01 00:00:00 13.6 10 Noroeste 16 Noroeste 0 -- -- 91
2018-09-30 23:00:00 14 11 Oeste 18 Oeste 0 -- -- 89
2018-09-30 22:00:00 13.7 12 Oeste 22 Oeste 0 -- -- 89
2018-09-30 21:00:00 14.1 15 Sudoeste 25 Oeste 0 -- -- 86
2018-09-30 20:00:00 14.8 17 Oeste 24 Sudoeste 0 -- -- 84
2018-09-30 19:00:00 15.7 14 Oeste 23 Oeste 0 -- -- 82
2018-09-30 18:00:00 16.8 18 Oeste 23 Oeste 0 -- -- 79
2018-09-30 17:00:00 18.5 11 Oeste 16 Oeste 0 -- -- 76
2018-09-30 16:00:00 19 7 Oeste 23 Oeste 0 -- -- 76
2018-09-30 15:00:00 17.7 12 Oeste 18 Oeste 0 -- -- 81
2018-09-30 14:00:00 16.3 10 Oeste 14 Oeste 0 -- -- 88
2018-09-30 13:00:00 15.9 9 Noroeste 20 Oeste 0 -- -- 92
2018-09-30 12:00:00 15.4 6 Oeste 15 Oeste 0 -- -- 97
2018-09-30 11:00:00 14.6 7 Noroeste 14 Oeste 0 -- -- 100
2018-09-30 10:00:00 14.6 4 Oeste 8 Oeste 0 -- -- 100
2018-09-30 09:00:00 14 0 Calma 4 Sudoeste 0 -- -- 100
2018-09-30 08:00:00 13.9 2 Sudoeste 5 Sudeste 0 -- -- 100
2018-09-30 07:00:00 14 3 Sur 8 Sudeste 0 -- -- 100
2018-09-30 06:00:00 14.2 5 Sudeste 6 Sudeste 0.2 -- -- 100
2018-09-30 05:00:00 14.3 2 Sur 5 Sudoeste 0 -- -- 100
2018-09-30 04:00:00 14.3 0 Calma 5 Nordeste 0 -- -- 100
2018-09-30 03:00:00 14.3 3 Este 5 Sudoeste 0 -- -- 100
2018-09-30 02:00:00 14.4 3 Sudoeste 9 Oeste 0 -- -- 100
2018-09-30 01:00:00 14.5 5 Oeste 8 Sudoeste 0 -- -- 100
2018-09-30 00:00:00 14.7 3 Sudoeste 7 Sur 0 -- -- 99
2018-09-29 23:00:00 15 0 Calma 11 Este 0 -- -- 99
2018-09-29 22:00:00 15.1 9 Este 12 Este 0 -- -- 97
2018-09-29 21:00:00 15.7 7 Sudeste 19 Sudeste 0 -- -- 96
2018-09-29 20:00:00 16.7 14 Sudeste 23 Sudeste 0 -- -- 92
2018-09-29 19:00:00 19.8 13 Sudeste 25 Sudeste 0 -- -- 82
2018-09-29 18:00:00 22.2 12 Sudeste 22 Sudeste 0 -- -- 75
2018-09-29 17:00:00 23.4 10 Sudeste 27 Nordeste 0 -- -- 72
2018-09-29 16:00:00 24.1 12 Sudeste 28 Este 0 -- -- 65
2018-09-29 15:00:00 23.2 18 Sudeste 37 Este 0 -- -- 66
2018-09-29 14:00:00 23.5 22 Este 39 Este 0 -- -- 61
2018-09-29 13:00:00 23.2 9 Sudeste 16 Este 0 -- -- 73
2018-09-29 12:00:00 20.8 6 Sudeste 12 Sur 0 -- -- 83
2018-09-29 11:00:00 17.5 2 Sudoeste 7 Este 0 -- -- 100
2018-09-29 10:00:00 16 4 Este 9 Sudeste 0 -- -- 100
2018-09-29 09:00:00 15.3 4 Sudeste 9 Sudeste 0 -- -- 100
2018-09-29 08:00:00 15.3 3 Sudeste 7 Este 0 -- -- 100
2018-09-29 07:00:00 15.3 3 Este 5 Este 0 -- -- 100
2018-09-29 06:00:00 15.4 3 Sudoeste 8 Sudeste 0 -- -- 100
2018-09-29 05:00:00 15.4 6 Sudeste 19 Sudeste 0 -- -- 100
2018-09-29 04:00:00 15.8 12 Sudeste 20 Sudeste 0 -- -- 100
2018-09-29 03:00:00 16.4 11 Sudeste 19 Sudeste 0 -- -- 100
2018-09-29 02:00:00 16.7 9 Sudeste 16 Sudeste 0 -- -- 100
2018-09-29 01:00:00 16.8 7 Sudeste 15 Sudeste 0 -- -- 100
2018-09-29 00:00:00 16.9 6 Sudeste 14 Sudeste 0 -- -- 100
2018-09-28 23:00:00 17 6 Sudeste 12 Sudeste 0 -- -- 100
2018-09-28 22:00:00 17.1 5 Sudeste 14 Sudeste 0 -- -- 99
2018-09-28 21:00:00 17.1 10 Sudeste 17 Sudeste 0 -- -- 98
2018-09-28 20:00:00 17.4 5 Sudeste 20 Sudeste 0 -- -- 96
2018-09-28 19:00:00 17.9 10 Sudeste 24 Sudeste 0 -- -- 94
2018-09-28 18:00:00 19.5 17 Sudeste 27 Este 0 -- -- 88
2018-09-28 17:00:00 20.9 14 Sudeste 23 Este 0 -- -- 83
2018-09-28 16:00:00 23.6 9 Sur 17 Este 0 -- -- 71
2018-09-28 15:00:00 22.8 12 Sudeste 21 Sudeste 0 -- -- 76
2018-09-28 14:00:00 23.2 13 Sudeste 21 Sudeste 0 -- -- 75
2018-09-28 13:00:00 22.6 5 Sudeste 12 Este 0 -- -- 77
2018-09-28 12:00:00 19.9 4 Sudoeste 9 Noroeste 0 -- -- 85
2018-09-28 11:00:00 17.8 3 Sudeste 7 Este 0 -- -- 98
2018-09-28 10:00:00 15.5 5 Oeste 8 Oeste 0 -- -- 100
2018-09-28 09:00:00 14.6 0 Calma 4 Sudeste 0 -- -- 100
2018-09-28 08:00:00 14.5 4 Sudeste 5 Sudeste 0 -- -- 100
2018-09-28 07:00:00 14.7 3 Oeste 8 Oeste 0 -- -- 99
2018-09-28 06:00:00 14.8 8 Sudoeste 12 Oeste 0 -- -- 99
2018-09-28 05:00:00 15.1 4 Sudeste 6 Este 0 -- -- 96
2018-09-28 04:00:00 15.7 0 Calma 10 Sudoeste 0 -- -- 93
2018-09-28 03:00:00 16.1 9 Oeste 14 Oeste 0 -- -- 90
2018-09-28 02:00:00 17.2 8 Oeste 10 Oeste 0 -- -- 87
2018-09-28 01:00:00 17.6 4 Sudoeste 17 Sudeste 0 -- -- 89
2018-09-28 00:00:00 18.7 15 Sudeste 18 Sudeste 0 -- -- 82
2018-09-27 23:00:00 19.9 3 Oeste 14 Este 0 -- -- 73
2018-09-27 22:00:00 20.9 3 Nordeste 15 Noroeste 0 -- -- 68
2018-09-27 21:00:00 21.5 12 Oeste 21 Oeste 0 -- -- 64
2018-09-27 20:00:00 23 15 Oeste 21 Oeste 0 -- -- 55
2018-09-27 19:00:00 27.4 9 Sudoeste 16 Sudoeste 0 -- -- 49
2018-09-27 18:00:00 28.3 13 Sudoeste 19 Sudoeste 0 -- -- 48
2018-09-27 17:00:00 29.1 13 Oeste 19 Oeste 0 -- -- 46
2018-09-27 16:00:00 28.6 12 Oeste 18 Noroeste 0 -- -- 45
2018-09-27 15:00:00 27.9 13 Oeste 21 Noroeste 0 -- -- 50
2018-09-27 14:00:00 25 16 Noroeste 28 Noroeste 0 -- -- 55
2018-09-27 13:00:00 26 16 Noroeste 23 Noroeste 0 -- -- 55
2018-09-27 12:00:00 25.3 2 Sudoeste 8 Sudoeste 0 -- -- 60
2018-09-27 11:00:00 21.8 2 Sudoeste 8 Sudoeste 0 -- -- 67
2018-09-27 10:00:00 19.6 4 Sudeste 17 Sudeste 0 -- -- 68
2018-09-27 09:00:00 18.1 5 Sudeste 20 Sur 0 -- -- 69
2018-09-27 08:00:00 17.1 7 Este 11 Este 0 -- -- 71
2018-09-27 07:00:00 17.5 6 Este 10 Sudeste 0 -- -- 69
2018-09-27 06:00:00 17.6 5 Sudeste 13 Sudeste 0 -- -- 69
2018-09-27 05:00:00 17.5 7 Sudeste 13 Sudeste 0 -- -- 69
2018-09-27 04:00:00 17.8 4 Este 9 Este 0 -- -- 67
2018-09-27 03:00:00 17.6 8 Nordeste 12 Nordeste 0 -- -- 69
2018-09-27 02:00:00 17.5 2 Este 8 Este 0 -- -- 70
2018-09-27 01:00:00 18.1 3 Este 5 Nordeste 0 -- -- 69
2018-09-27 00:00:00 18.7 4 Este 6 Este 0 -- -- 69
2018-09-26 23:00:00 19.1 4 Sur 7 Sur 0 -- -- 66
2018-09-26 22:00:00 19.8 6 Oeste 8 Oeste 0 -- -- 65
2018-09-26 21:00:00 20 4 Sudoeste 11 Sudeste 0 -- -- 68
2018-09-26 20:00:00 23.5 6 Este 9 Este 0 -- -- 58
2018-09-26 19:00:00 26.6 6 Sudeste 10 Sur 0 -- -- 50
2018-09-26 18:00:00 27.8 5 Sur 13 Sur 0 -- -- 44
2018-09-26 17:00:00 27.4 8 Sur 12 Sudeste 0 -- -- 46
2018-09-26 16:00:00 26.7 6 Sudeste 13 Sudeste 0 -- -- 48
2018-09-26 15:00:00 25.8 7 Sur 11 Sudeste 0 -- -- 50
2018-09-26 14:00:00 23.1 4 Sudeste 9 Sur 0 -- -- 55
2018-09-26 13:00:00 20.3 3 Sudoeste 8 Sudeste 0 -- -- 67
2018-09-26 12:00:00 17 2 Oeste 6 Sudoeste 0 -- -- 76
2018-09-26 11:00:00 13.6 2 Sudoeste 6 Oeste 0 -- -- 93
2018-09-26 10:00:00 10.6 4 Oeste 9 Oeste 0 -- -- 98
2018-09-26 09:00:00 8.9 5 Oeste 8 Noroeste 0 -- -- 100
2018-09-26 08:00:00 8.8 0 Calma 5 Oeste 0 -- -- 100
2018-09-26 07:00:00 8.6 6 Noroeste 10 Oeste 0 -- -- 100
2018-09-26 06:00:00 8.8 0 Calma 3 Sudoeste 0 -- -- 100
2018-09-26 05:00:00 8.7 0 Calma 6 Este 0 -- -- 100
2018-09-26 04:00:00 9.1 4 Este 7 Este 0 -- -- 99
2018-09-26 03:00:00 9.8 3 Este 4 Sudeste 0 -- -- 98
2018-09-26 02:00:00 10.3 0 Calma 9 Sur 0 -- -- 99
2018-09-26 01:00:00 10.3 0 Calma 4 Este 0 -- -- 99
2018-09-26 00:00:00 10.2 3 Este 13 Sudeste 0 -- -- 97
2018-09-25 23:00:00 10.5 7 Este 19 Sudeste 0 -- -- 97
2018-09-25 22:00:00 11.1 9 Sudeste 15 Este 0 -- -- 96
2018-09-25 21:00:00 11.7 11 Sudeste 15 Este 0 -- -- 93
2018-09-25 20:00:00 13.9 9 Sudeste 23 Este 0 -- -- 84
2018-09-25 19:00:00 16.2 12 Este 27 Este 0 -- -- 77
2018-09-25 18:00:00 17.2 14 Este 32 Este 0 -- -- 73
2018-09-25 17:00:00 18 17 Este 28 Este 0 -- -- 71
2018-09-25 16:00:00 18.4 15 Este 31 Este 0 -- -- 69
2018-09-25 15:00:00 18.6 18 Este 32 Este 0 -- -- 70
2018-09-25 14:00:00 18 17 Este 30 Este 0 -- -- 67
2018-09-25 13:00:00 17.4 10 Sudeste 35 Este 0 -- -- 73
2018-09-25 12:00:00 15 20 Este 39 Este 0 -- -- 77
2018-09-25 11:00:00 13 13 Sudeste 25 Sudeste 0 -- -- 80
2018-09-25 10:00:00 10.6 6 Sudeste 19 Sur 0 -- -- 86
2018-09-25 09:00:00 8.8 7 Sudeste 16 Sudeste 0 -- -- 90
2018-09-25 08:00:00 8.7 12 Sudeste 21 Sudeste 0 -- -- 89
2018-09-25 07:00:00 8.7 11 Sudeste 15 Sudeste 0 -- -- 91
2018-09-25 06:00:00 8 10 Sudeste 16 Sudeste 0 -- -- 97
2018-09-25 05:00:00 8 10 Sudeste 14 Este 0 -- -- 99
2018-09-25 04:00:00 8.2 8 Sudeste 16 Sudeste 0 -- -- 100
2018-09-25 03:00:00 8.5 12 Sudeste 16 Sudeste 0 -- -- 100
2018-09-25 02:00:00 9.2 11 Sudeste 15 Sudeste 0 -- -- 98
2018-09-25 01:00:00 9.8 10 Sudeste 19 Sudeste 0 -- -- 97
2018-09-25 00:00:00 10.4 10 Sudeste 33 Este 0 -- -- 96
2018-09-24 23:00:00 10.7 15 Este 34 Este 0 -- -- 96
2018-09-24 22:00:00 10.8 16 Este 34 Este 0 -- -- 96
2018-09-24 21:00:00 11.4 15 Este 30 Este 0 -- -- 96
2018-09-24 20:00:00 11.6 13 Este 30 Este 0 -- -- 97
2018-09-24 19:00:00 11.9 15 Este 35 Este 0 -- -- 97
2018-09-24 18:00:00 12.5 18 Este 32 Este 0 -- -- 96
2018-09-24 17:00:00 12.9 15 Este 33 Este 0 -- -- 95
2018-09-24 16:00:00 13.6 15 Este 37 Este 0 -- -- 94
2018-09-24 15:00:00 14 20 Este 38 Este 0 -- -- 95
2018-09-24 14:00:00 14 17 Este 44 Este 0 -- -- 96
2018-09-24 13:00:00 14.4 19 Este 44 Este 0 -- -- 97
2018-09-24 12:00:00 14.2 18 Este 39 Sudeste 0 -- -- 100
2018-09-24 11:00:00 14.4 16 Este 29 Este 0 -- -- 100
2018-09-24 10:00:00 13.4 19 Sudeste 36 Este 0 -- -- 100
2018-09-24 09:00:00 13.7 12 Sudeste 27 Sudeste 0.2 -- -- 100
2018-09-24 08:00:00 14 16 Sudeste 27 Este 0 -- -- 100
2018-09-24 07:00:00 14.9 14 Sudeste 22 Sudeste 0.2 -- -- 100
2018-09-24 06:00:00 15.6 6 Sudeste 8 Sudeste 0.4 -- -- 100
2018-09-24 05:00:00 15.7 5 Sudeste 15 Sudeste 0 -- -- 100
2018-09-24 04:00:00 16.1 11 Sudeste 19 Sudeste 1.4 -- -- 100
2018-09-24 03:00:00 16.6 7 Sudoeste 23 Sudoeste 1.8 -- -- 100
2018-09-24 02:00:00 17.1 19 Oeste 24 Oeste 0.8 -- -- 100
2018-09-24 01:00:00 18.1 10 Oeste 16 Oeste 0 -- -- 100
2018-09-24 00:00:00 18.3 9 Noroeste 16 Noroeste 0 -- -- 98
2018-09-23 23:00:00 18.3 10 Noroeste 14 Noroeste 0 -- -- 97
2018-09-23 22:00:00 18.5 8 Noroeste 15 Noroeste 0 -- -- 96
2018-09-23 21:00:00 19.2 10 Noroeste 14 Noroeste 0 -- -- 92
2018-09-23 20:00:00 19.4 10 Noroeste 25 Oeste 0 -- -- 90
2018-09-23 19:00:00 22.4 17 Oeste 26 Oeste 0 -- -- 77
2018-09-23 18:00:00 24.5 13 Noroeste 34 Noroeste 0 -- -- 67
2018-09-23 17:00:00 24 29 Noroeste 39 Noroeste 0 -- -- 60
2018-09-23 16:00:00 24 24 Noroeste 36 Norte 0 -- -- 76
2018-09-23 15:00:00 24.3 16 Noroeste 31 Noroeste 0 -- -- 74
2018-09-23 14:00:00 25 19 Noroeste 30 Norte 0 -- -- 75
2018-09-23 13:00:00 25 6 Oeste 10 Oeste 0 -- -- 70
2018-09-23 12:00:00 22.6 4 Oeste 8 Sudoeste 0 -- -- 80
2018-09-23 11:00:00 19.7 2 Noroeste 9 Oeste 0 -- -- 93
2018-09-23 10:00:00 16.9 7 Oeste 9 Oeste 0 -- -- 100
2018-09-23 09:00:00 15.9 2 Sudoeste 6 Sudoeste 0 -- -- 100
2018-09-23 08:00:00 16 5 Oeste 8 Sudoeste 0 -- -- 100
2018-09-23 07:00:00 15.8 0 Calma 7 Sudoeste 0 -- -- 100
2018-09-23 06:00:00 16.2 6 Oeste 8 Oeste 0 -- -- 100
2018-09-23 05:00:00 16.1 3 Sudoeste 5 Sudoeste 0 -- -- 100
2018-09-23 04:00:00 16.5 2 Sudeste 6 Oeste 0 -- -- 100
2018-09-23 03:00:00 16.5 4 Oeste 5 Oeste 0 -- -- 100
2018-09-23 02:00:00 16.9 4 Sudeste 10 Sudeste 0 -- -- 99
2018-09-23 01:00:00 17.4 8 Sur 10 Sur 0 -- -- 97
2018-09-23 00:00:00 18 0 Calma 5 Sur 0 -- -- 96
2018-09-22 23:00:00 18.5 3 Sudeste 9 Sudeste 0 -- -- 93
2018-09-22 22:00:00 19.1 5 Sudeste 13 Sudeste 0 -- -- 91
2018-09-22 21:00:00 20.3 5 Sur 13 Sur 0 -- -- 86
2018-09-22 20:00:00 22.5 13 Sudeste 17 Sudeste 0 -- -- 77
2018-09-22 19:00:00 24.9 13 Sur 15 Sur 0 -- -- 70
2018-09-22 18:00:00 26.9 9 Sudoeste 21 Oeste 0 -- -- 65
2018-09-22 17:00:00 26.6 19 Oeste 23 Oeste 0 -- -- 64
2018-09-22 16:00:00 27.5 10 Oeste 22 Oeste 0 -- -- 59
2018-09-22 15:00:00 25.9 15 Noroeste 28 Noroeste 0 -- -- 55
2018-09-22 14:00:00 25.9 13 Noroeste 23 Norte 0 -- -- 61
2018-09-22 13:00:00 24.5 5 Norte 9 Nordeste 0 -- -- 67
2018-09-22 12:00:00 22.9 3 Sudoeste 7 Sudoeste 0 -- -- 76
2018-09-22 11:00:00 19 0 Calma 4 Noroeste 0 -- -- 99
2018-09-22 10:00:00 15.6 3 Oeste 5 Sudoeste 0 -- -- 100
2018-09-22 09:00:00 14.3 0 Calma 6 Sudoeste 0 -- -- 100
2018-09-22 08:00:00 14.4 0 Calma 6 Oeste 0 -- -- 100
2018-09-22 07:00:00 14.9 4 Oeste 7 Oeste 0 -- -- 100
2018-09-22 06:00:00 15.2 4 Este 6 Sudeste 0 -- -- 100
2018-09-22 05:00:00 15.3 0 Calma 11 Este 0 -- -- 100
2018-09-22 04:00:00 15.5 6 Este 10 Este 0 -- -- 100
2018-09-22 03:00:00 15.6 4 Sudeste 6 Sudoeste 0 -- -- 100
2018-09-22 02:00:00 15.5 0 Calma 13 Sudeste 0 -- -- 100
2018-09-22 01:00:00 15.8 10 Sudeste 15 Sudeste 0 -- -- 100
2018-09-22 00:00:00 16 10 Sudeste 18 Este 0 -- -- 100
2018-09-21 23:00:00 16.1 8 Sudeste 19 Sudeste 0 -- -- 99
2018-09-21 22:00:00 16.3 10 Este 17 Este 0 -- -- 98
2018-09-21 21:00:00 16.5 9 Sudeste 16 Este 0 -- -- 97
2018-09-21 20:00:00 16.8 3 Oeste 18 Oeste 0 -- -- 95
2018-09-21 19:00:00 17.5 16 Oeste 21 Oeste 0 -- -- 92
2018-09-21 18:00:00 18.9 8 Oeste 20 Oeste 0 -- -- 88
2018-09-21 17:00:00 19.5 15 Oeste 26 Oeste 0 -- -- 84
2018-09-21 16:00:00 20.9 14 Oeste 23 Noroeste 0 -- -- 77
2018-09-21 15:00:00 20.8 15 Oeste 22 Oeste 0 -- -- 77
2018-09-21 14:00:00 19.9 10 Oeste 15 Oeste 0 -- -- 77
2018-09-21 13:00:00 19.8 11 Oeste 22 Noroeste 0 -- -- 77
2018-09-21 12:00:00 19.7 12 Noroeste 16 Noroeste 0 -- -- 78
2018-09-21 11:00:00 18 4 Sudoeste 6 Sudoeste 0 -- -- 94
2018-09-21 10:00:00 15.9 0 Calma 6 Sudoeste 0 -- -- 100
2018-09-21 09:00:00 14.9 0 Calma 6 Oeste 0 -- -- 100
2018-09-21 08:00:00 14.5 5 Noroeste 12 Este 0 -- -- 100
2018-09-21 07:00:00 14.9 5 Sudeste 9 Sudeste 0 -- -- 100
2018-09-21 06:00:00 14.8 5 Oeste 12 Sudeste 0 -- -- 100
2018-09-21 05:00:00 15 6 Sudeste 10 Sudeste 0 -- -- 100
2018-09-21 04:00:00 15.1 4 Nordeste 6 Nordeste 0 -- -- 100
2018-09-21 03:00:00 15.3 0 Calma 9 Sudeste 0 -- -- 100
2018-09-21 02:00:00 15.5 2 Sudeste 12 Oeste 0 -- -- 98
2018-09-21 01:00:00 15.7 9 Oeste 12 Oeste 0 -- -- 97
2018-09-21 00:00:00 16.6 3 Sudoeste 9 Oeste 0 -- -- 94
2018-09-20 23:00:00 17.3 3 Sudoeste 9 Sudeste 0 -- -- 95
2018-09-20 22:00:00 18.1 4 Oeste 14 Sudoeste 0 -- -- 85
2018-09-20 21:00:00 19.2 5 Noroeste 10 Oeste 0 -- -- 91
2018-09-20 20:00:00 20.6 8 Sur 10 Sudeste 0 -- -- 86
2018-09-20 19:00:00 22 5 Sudoeste 15 Oeste 0 -- -- 80
2018-09-20 18:00:00 23.9 12 Oeste 17 Noroeste 0 -- -- 73
2018-09-20 17:00:00 25.5 9 Noroeste 15 Noroeste 0 -- -- 63
2018-09-20 16:00:00 24.6 12 Noroeste 25 Noroeste 0 -- -- 68
2018-09-20 15:00:00 24.5 14 Noroeste 19 Oeste 0 -- -- 68
2018-09-20 14:00:00 24.2 4 Oeste 9 Oeste 0 -- -- 69
2018-09-20 13:00:00 22 3 Norte 9 Oeste 0 -- -- 79
2018-09-20 12:00:00 20.5 3 Este 7 Este 0 -- -- 88
2018-09-20 11:00:00 17.3 2 Sudoeste 6 Oeste 0 -- -- 100
2018-09-20 10:00:00 15.1 3 Este 6 Este 0 -- -- 100
2018-09-20 09:00:00 14.1 2 Oeste 8 Sudoeste 0 -- -- 100
2018-09-20 08:00:00 14 2 Sur 7 Sudoeste 0 -- -- 100
2018-09-20 07:00:00 14.3 0 Calma 7 Sudoeste 0 -- -- 100
2018-09-20 06:00:00 14.8 3 Este 6 Sudeste 0 -- -- 100
2018-09-20 05:00:00 15.3 0 Calma 5 Sudeste 0 -- -- 100
2018-09-20 04:00:00 15.6 5 Sudeste 9 Sudeste 0 -- -- 99
2018-09-20 03:00:00 16.2 6 Sur 9 Sudeste 0 -- -- 99
2018-09-20 02:00:00 17.1 7 Sudeste 10 Sudeste 0 -- -- 98
2018-09-20 01:00:00 17.2 0 Calma 8 Sudeste 0 -- -- 99
2018-09-20 00:00:00 17.2 7 Sudeste 10 Sudeste 0 -- -- 98